sensor_id;sensor_type;location;lat;lon;timestamp;temperature;humidity
28654;DHT22;24320;56.980;24.336;2024-03-25T00:01:11;3.10;99.90
28654;DHT22;24320;56.980;24.336;2024-03-25T00:03:38;3.00;99.90
28654;DHT22;24320;56.980;24.336;2024-03-25T00:06:04;3.00;99.90
28654;DHT22;24320;56.980;24.336;2024-03-25T00:08:30;2.90;99.90
28654;DHT22;24320;56.980;24.336;2024-03-25T00:10:56;2.80;99.90
28654;DHT22;24320;56.980;24.336;2024-03-25T00:13:22;2.80;99.90
28654;DHT22;24320;56.980;24.336;2024-03-25T00:15:48;2.60;99.90
28654;DHT22;24320;56.980;24.336;2024-03-25T00:18:14;2.60;99.90
28654;DHT22;24320;56.980;24.336;2024-03-25T00:20:40;2.60;99.90
28654;DHT22;24320;56.980;24.336;2024-03-25T00:23:05;2.60;99.90
28654;DHT22;24320;56.980;24.336;2024-03-25T00:25:32;2.60;99.90
28654;DHT22;24320;56.980;24.336;2024-03-25T00:27:58;2.60;99.90
28654;DHT22;24320;56.980;24.336;2024-03-25T00:30:24;2.70;99.90
28654;DHT22;24320;56.980;24.336;2024-03-25T00:32:50;2.60;99.90
28654;DHT22;24320;56.980;24.336;2024-03-25T00:35:16;2.60;99.90
28654;DHT22;24320;56.980;24.336;2024-03-25T00:37:42;2.70;99.90
28654;DHT22;24320;56.980;24.336;2024-03-25T00:40:07;2.70;99.90
28654;DHT22;24320;56.980;24.336;2024-03-25T00:42:33;2.70;99.90
28654;DHT22;24320;56.980;24.336;2024-03-25T00:44:59;2.70;99.90
28654;DHT22;24320;56.980;24.336;2024-03-25T00:47:25;2.70;99.90
28654;DHT22;24320;56.980;24.336;2024-03-25T00:49:51;2.60;99.90
28654;DHT22;24320;56.980;24.336;2024-03-25T00:52:17;2.50;99.90
28654;DHT22;24320;56.980;24.336;2024-03-25T00:54:43;2.50;99.90
28654;DHT22;24320;56.980;24.336;2024-03-25T00:57:09;2.40;99.90
28654;DHT22;24320;56.980;24.336;2024-03-25T00:59:37;2.30;99.90
28654;DHT22;24320;56.980;24.336;2024-03-25T01:02:03;2.20;99.90
28654;DHT22;24320;56.980;24.336;2024-03-25T01:04:29;2.10;99.90
28654;DHT22;24320;56.980;24.336;2024-03-25T01:06:54;2.10;99.90
28654;DHT22;24320;56.980;24.336;2024-03-25T01:09:20;2.10;99.90
28654;DHT22;24320;56.980;24.336;2024-03-25T01:11:47;2.10;99.90
28654;DHT22;24320;56.980;24.336;2024-03-25T01:14:13;2.00;99.90
28654;DHT22;24320;56.980;24.336;2024-03-25T01:16:39;2.00;99.90
28654;DHT22;24320;56.980;24.336;2024-03-25T01:19:05;1.90;99.90
28654;DHT22;24320;56.980;24.336;2024-03-25T01:21:30;1.90;99.90
28654;DHT22;24320;56.980;24.336;2024-03-25T01:23:56;2.00;99.90
28654;DHT22;24320;56.980;24.336;2024-03-25T01:26:22;2.00;99.90
28654;DHT22;24320;56.980;24.336;2024-03-25T01:28:48;2.00;99.90
28654;DHT22;24320;56.980;24.336;2024-03-25T01:31:13;2.00;99.90
28654;DHT22;24320;56.980;24.336;2024-03-25T01:33:40;2.00;99.90
28654;DHT22;24320;56.980;24.336;2024-03-25T01:36:06;2.00;99.90
28654;DHT22;24320;56.980;24.336;2024-03-25T01:38:32;2.00;99.90
28654;DHT22;24320;56.980;24.336;2024-03-25T01:41:08;2.00;99.90
28654;DHT22;24320;56.980;24.336;2024-03-25T01:43:34;2.10;99.90
28654;DHT22;24320;56.980;24.336;2024-03-25T01:45:59;2.00;99.90
28654;DHT22;24320;56.980;24.336;2024-03-25T01:48:25;2.10;99.90
28654;DHT22;24320;56.980;24.336;2024-03-25T01:50:51;2.10;99.90
28654;DHT22;24320;56.980;24.336;2024-03-25T01:53:18;2.10;99.90
28654;DHT22;24320;56.980;24.336;2024-03-25T01:55:44;2.20;99.90
28654;DHT22;24320;56.980;24.336;2024-03-25T01:58:11;2.20;99.90
28654;DHT22;24320;56.980;24.336;2024-03-25T02:00:37;2.30;99.90
28654;DHT22;24320;56.980;24.336;2024-03-25T02:03:03;2.30;99.90
28654;DHT22;24320;56.980;24.336;2024-03-25T02:05:30;2.30;99.90
28654;DHT22;24320;56.980;24.336;2024-03-25T02:07:56;2.40;99.90
28654;DHT22;24320;56.980;24.336;2024-03-25T02:10:22;2.30;99.90
28654;DHT22;24320;56.980;24.336;2024-03-25T02:12:48;2.40;99.90
28654;DHT22;24320;56.980;24.336;2024-03-25T02:15:16;2.30;99.90
28654;DHT22;24320;56.980;24.336;2024-03-25T02:17:42;2.30;99.90
28654;DHT22;24320;56.980;24.336;2024-03-25T02:20:08;2.40;99.90
28654;DHT22;24320;56.980;24.336;2024-03-25T02:22:35;2.40;99.90
28654;DHT22;24320;56.980;24.336;2024-03-25T02:25:03;2.40;99.90
28654;DHT22;24320;56.980;24.336;2024-03-25T02:27:31;2.40;99.90
28654;DHT22;24320;56.980;24.336;2024-03-25T02:30:01;2.50;99.90
28654;DHT22;24320;56.980;24.336;2024-03-25T02:32:27;2.50;99.90
28654;DHT22;24320;56.980;24.336;2024-03-25T02:34:55;2.50;99.90
28654;DHT22;24320;56.980;24.336;2024-03-25T02:37:22;2.50;99.90
28654;DHT22;24320;56.980;24.336;2024-03-25T02:39:48;2.50;99.90
28654;DHT22;24320;56.980;24.336;2024-03-25T02:42:14;2.50;99.90
28654;DHT22;24320;56.980;24.336;2024-03-25T02:44:40;2.50;99.90
28654;DHT22;24320;56.980;24.336;2024-03-25T02:47:08;2.50;99.90
28654;DHT22;24320;56.980;24.336;2024-03-25T02:49:35;2.50;99.90
28654;DHT22;24320;56.980;24.336;2024-03-25T02:52:01;2.50;99.90
28654;DHT22;24320;56.980;24.336;2024-03-25T02:54:27;2.60;99.90
28654;DHT22;24320;56.980;24.336;2024-03-25T02:56:52;2.60;99.90
28654;DHT22;24320;56.980;24.336;2024-03-25T02:59:18;2.60;99.90
28654;DHT22;24320;56.980;24.336;2024-03-25T03:01:44;2.60;99.90
28654;DHT22;24320;56.980;24.336;2024-03-25T03:04:10;2.70;99.90
28654;DHT22;24320;56.980;24.336;2024-03-25T03:06:35;2.60;99.90
28654;DHT22;24320;56.980;24.336;2024-03-25T03:09:01;2.60;99.90
28654;DHT22;24320;56.980;24.336;2024-03-25T03:11:27;2.60;99.90
28654;DHT22;24320;56.980;24.336;2024-03-25T03:13:53;2.70;99.90
28654;DHT22;24320;56.980;24.336;2024-03-25T03:16:19;2.60;99.90
28654;DHT22;24320;56.980;24.336;2024-03-25T03:18:44;2.70;99.90
28654;DHT22;24320;56.980;24.336;2024-03-25T03:21:10;2.70;99.90
28654;DHT22;24320;56.980;24.336;2024-03-25T03:23:36;2.70;99.90
28654;DHT22;24320;56.980;24.336;2024-03-25T03:26:02;2.70;99.90
28654;DHT22;24320;56.980;24.336;2024-03-25T03:28:28;2.70;99.90
28654;DHT22;24320;56.980;24.336;2024-03-25T03:30:54;2.70;99.90
28654;DHT22;24320;56.980;24.336;2024-03-25T03:33:20;2.70;99.90
28654;DHT22;24320;56.980;24.336;2024-03-25T03:35:45;2.70;99.90
28654;DHT22;24320;56.980;24.336;2024-03-25T03:38:11;2.70;99.90
28654;DHT22;24320;56.980;24.336;2024-03-25T03:40:37;2.80;99.90
28654;DHT22;24320;56.980;24.336;2024-03-25T03:43:03;2.70;99.90
28654;DHT22;24320;56.980;24.336;2024-03-25T03:45:32;2.80;99.90
28654;DHT22;24320;56.980;24.336;2024-03-25T03:47:58;2.70;99.90
28654;DHT22;24320;56.980;24.336;2024-03-25T03:50:23;2.80;99.90
28654;DHT22;24320;56.980;24.336;2024-03-25T03:52:49;2.80;99.90
28654;DHT22;24320;56.980;24.336;2024-03-25T03:55:15;2.80;99.90
28654;DHT22;24320;56.980;24.336;2024-03-25T03:57:41;2.80;99.90
28654;DHT22;24320;56.980;24.336;2024-03-25T04:00:08;2.80;99.90
28654;DHT22;24320;56.980;24.336;2024-03-25T04:15:51;2.80;99.90
28654;DHT22;24320;56.980;24.336;2024-03-25T04:18:18;2.80;99.90
28654;DHT22;24320;56.980;24.336;2024-03-25T04:20:44;2.70;99.90
28654;DHT22;24320;56.980;24.336;2024-03-25T04:23:10;2.80;99.90
28654;DHT22;24320;56.980;24.336;2024-03-25T04:25:36;2.80;99.90
28654;DHT22;24320;56.980;24.336;2024-03-25T04:28:03;2.80;99.90
28654;DHT22;24320;56.980;24.336;2024-03-25T04:30:29;2.80;99.90
28654;DHT22;24320;56.980;24.336;2024-03-25T04:32:55;2.80;99.90
28654;DHT22;24320;56.980;24.336;2024-03-25T04:35:20;2.90;99.90
28654;DHT22;24320;56.980;24.336;2024-03-25T04:37:46;2.90;99.90
28654;DHT22;24320;56.980;24.336;2024-03-25T04:40:12;2.90;99.90
28654;DHT22;24320;56.980;24.336;2024-03-25T04:42:44;2.90;99.90
28654;DHT22;24320;56.980;24.336;2024-03-25T04:45:10;2.90;99.90
28654;DHT22;24320;56.980;24.336;2024-03-25T04:47:37;2.90;99.90
28654;DHT22;24320;56.980;24.336;2024-03-25T04:50:03;2.90;99.90
28654;DHT22;24320;56.980;24.336;2024-03-25T04:52:29;2.90;99.90
28654;DHT22;24320;56.980;24.336;2024-03-25T04:54:55;2.90;99.90
28654;DHT22;24320;56.980;24.336;2024-03-25T04:57:21;2.90;99.90
28654;DHT22;24320;56.980;24.336;2024-03-25T04:59:46;2.90;99.90
28654;DHT22;24320;56.980;24.336;2024-03-25T05:02:12;2.80;99.90
28654;DHT22;24320;56.980;24.336;2024-03-25T05:04:39;2.70;99.90
28654;DHT22;24320;56.980;24.336;2024-03-25T05:07:05;2.70;99.90
28654;DHT22;24320;56.980;24.336;2024-03-25T05:09:31;2.60;99.90
28654;DHT22;24320;56.980;24.336;2024-03-25T05:11:57;2.60;99.90
28654;DHT22;24320;56.980;24.336;2024-03-25T05:14:24;2.50;99.90
28654;DHT22;24320;56.980;24.336;2024-03-25T05:16:50;2.40;99.90
28654;DHT22;24320;56.980;24.336;2024-03-25T05:19:18;2.40;99.90
28654;DHT22;24320;56.980;24.336;2024-03-25T05:21:44;2.40;99.90
28654;DHT22;24320;56.980;24.336;2024-03-25T05:24:11;2.30;99.90
28654;DHT22;24320;56.980;24.336;2024-03-25T05:26:37;2.30;99.90
28654;DHT22;24320;56.980;24.336;2024-03-25T05:29:03;2.40;99.90
28654;DHT22;24320;56.980;24.336;2024-03-25T05:31:30;2.40;99.90
28654;DHT22;24320;56.980;24.336;2024-03-25T05:33:56;2.50;99.90
28654;DHT22;24320;56.980;24.336;2024-03-25T05:36:22;2.50;99.90
28654;DHT22;24320;56.980;24.336;2024-03-25T05:38:47;2.60;99.90
28654;DHT22;24320;56.980;24.336;2024-03-25T05:41:13;2.60;99.90
28654;DHT22;24320;56.980;24.336;2024-03-25T05:43:39;2.80;99.90
28654;DHT22;24320;56.980;24.336;2024-03-25T05:46:05;2.90;99.90
28654;DHT22;24320;56.980;24.336;2024-03-25T05:48:31;2.90;99.90
28654;DHT22;24320;56.980;24.336;2024-03-25T05:51:02;3.00;99.90
28654;DHT22;24320;56.980;24.336;2024-03-25T05:53:28;3.00;99.90
28654;DHT22;24320;56.980;24.336;2024-03-25T05:55:54;3.00;99.90
28654;DHT22;24320;56.980;24.336;2024-03-25T05:58:21;3.10;99.90
28654;DHT22;24320;56.980;24.336;2024-03-25T06:00:48;3.10;99.90
28654;DHT22;24320;56.980;24.336;2024-03-25T06:03:13;3.00;99.90
28654;DHT22;24320;56.980;24.336;2024-03-25T06:05:40;3.00;99.90
28654;DHT22;24320;56.980;24.336;2024-03-25T06:08:08;3.00;99.90
28654;DHT22;24320;56.980;24.336;2024-03-25T06:10:41;3.00;99.90
28654;DHT22;24320;56.980;24.336;2024-03-25T06:13:07;3.00;99.90
28654;DHT22;24320;56.980;24.336;2024-03-25T06:15:33;3.10;99.90
28654;DHT22;24320;56.980;24.336;2024-03-25T06:17:59;3.10;99.90
28654;DHT22;24320;56.980;24.336;2024-03-25T06:20:27;3.10;99.90
28654;DHT22;24320;56.980;24.336;2024-03-25T06:22:53;3.10;99.90
28654;DHT22;24320;56.980;24.336;2024-03-25T06:25:19;3.20;99.90
28654;DHT22;24320;56.980;24.336;2024-03-25T06:27:45;3.30;99.90
28654;DHT22;24320;56.980;24.336;2024-03-25T06:30:11;3.30;99.90
28654;DHT22;24320;56.980;24.336;2024-03-25T06:32:55;3.30;99.90
28654;DHT22;24320;56.980;24.336;2024-03-25T06:35:42;3.40;99.90
28654;DHT22;24320;56.980;24.336;2024-03-25T06:38:12;3.50;99.90
28654;DHT22;24320;56.980;24.336;2024-03-25T06:40:38;3.60;99.90
28654;DHT22;24320;56.980;24.336;2024-03-25T06:43:04;3.60;99.90
28654;DHT22;24320;56.980;24.336;2024-03-25T06:45:31;3.70;99.90
28654;DHT22;24320;56.980;24.336;2024-03-25T06:47:57;3.70;99.90
28654;DHT22;24320;56.980;24.336;2024-03-25T06:50:24;3.80;99.90
28654;DHT22;24320;56.980;24.336;2024-03-25T06:52:49;3.80;99.90
28654;DHT22;24320;56.980;24.336;2024-03-25T06:55:15;3.90;99.90
28654;DHT22;24320;56.980;24.336;2024-03-25T06:57:41;3.90;99.90
28654;DHT22;24320;56.980;24.336;2024-03-25T07:00:07;4.00;99.90
28654;DHT22;24320;56.980;24.336;2024-03-25T07:02:41;4.10;99.90
28654;DHT22;24320;56.980;24.336;2024-03-25T07:05:07;4.30;99.90
28654;DHT22;24320;56.980;24.336;2024-03-25T07:07:33;4.60;99.90
28654;DHT22;24320;56.980;24.336;2024-03-25T07:10:02;4.70;99.90
28654;DHT22;24320;56.980;24.336;2024-03-25T07:12:28;4.80;99.90
28654;DHT22;24320;56.980;24.336;2024-03-25T07:14:54;5.00;99.90
28654;DHT22;24320;56.980;24.336;2024-03-25T07:17:21;5.00;99.90
28654;DHT22;24320;56.980;24.336;2024-03-25T07:19:47;5.10;99.90
28654;DHT22;24320;56.980;24.336;2024-03-25T07:22:13;5.10;99.90
28654;DHT22;24320;56.980;24.336;2024-03-25T07:24:39;5.20;99.90
28654;DHT22;24320;56.980;24.336;2024-03-25T07:27:05;5.20;99.90
28654;DHT22;24320;56.980;24.336;2024-03-25T07:29:33;5.20;99.90
28654;DHT22;24320;56.980;24.336;2024-03-25T07:31:58;5.20;99.90
28654;DHT22;24320;56.980;24.336;2024-03-25T07:34:24;5.20;99.90
28654;DHT22;24320;56.980;24.336;2024-03-25T07:36:50;5.30;99.90
28654;DHT22;24320;56.980;24.336;2024-03-25T07:39:16;5.30;99.90
28654;DHT22;24320;56.980;24.336;2024-03-25T07:41:42;5.40;99.90
28654;DHT22;24320;56.980;24.336;2024-03-25T07:44:07;5.50;99.90
28654;DHT22;24320;56.980;24.336;2024-03-25T07:46:33;5.60;99.90
28654;DHT22;24320;56.980;24.336;2024-03-25T07:48:59;5.60;99.90
28654;DHT22;24320;56.980;24.336;2024-03-25T07:51:25;5.70;99.90
28654;DHT22;24320;56.980;24.336;2024-03-25T07:53:51;5.80;99.90
28654;DHT22;24320;56.980;24.336;2024-03-25T07:56:16;6.00;99.90
28654;DHT22;24320;56.980;24.336;2024-03-25T07:58:42;6.00;99.90
28654;DHT22;24320;56.980;24.336;2024-03-25T08:01:08;6.10;99.90
28654;DHT22;24320;56.980;24.336;2024-03-25T08:03:34;6.20;99.90
28654;DHT22;24320;56.980;24.336;2024-03-25T08:06:00;6.30;99.90
28654;DHT22;24320;56.980;24.336;2024-03-25T08:22:08;6.60;99.90
28654;DHT22;24320;56.980;24.336;2024-03-25T08:24:34;6.40;99.90
28654;DHT22;24320;56.980;24.336;2024-03-25T08:26:59;6.40;99.90
28654;DHT22;24320;56.980;24.336;2024-03-25T08:29:25;6.30;99.90
28654;DHT22;24320;56.980;24.336;2024-03-25T08:31:51;6.30;99.90
28654;DHT22;24320;56.980;24.336;2024-03-25T08:34:17;6.20;99.90
28654;DHT22;24320;56.980;24.336;2024-03-25T08:36:42;6.10;99.90
28654;DHT22;24320;56.980;24.336;2024-03-25T08:39:08;6.00;99.90
28654;DHT22;24320;56.980;24.336;2024-03-25T08:41:34;6.10;99.90
28654;DHT22;24320;56.980;24.336;2024-03-25T08:44:00;6.20;99.90
28654;DHT22;24320;56.980;24.336;2024-03-25T08:46:26;6.50;99.90
28654;DHT22;24320;56.980;24.336;2024-03-25T08:48:52;6.80;99.90
28654;DHT22;24320;56.980;24.336;2024-03-25T08:51:18;7.00;99.90
28654;DHT22;24320;56.980;24.336;2024-03-25T08:53:43;7.30;99.90
28654;DHT22;24320;56.980;24.336;2024-03-25T08:56:09;7.30;99.90
28654;DHT22;24320;56.980;24.336;2024-03-25T08:58:36;7.20;99.90
28654;DHT22;24320;56.980;24.336;2024-03-25T09:01:04;7.30;99.90
28654;DHT22;24320;56.980;24.336;2024-03-25T09:03:30;7.30;99.90
28654;DHT22;24320;56.980;24.336;2024-03-25T09:05:56;7.30;99.90
28654;DHT22;24320;56.980;24.336;2024-03-25T09:08:22;7.00;99.90
28654;DHT22;24320;56.980;24.336;2024-03-25T09:10:49;6.80;99.90
28654;DHT22;24320;56.980;24.336;2024-03-25T09:13:33;6.60;99.90
28654;DHT22;24320;56.980;24.336;2024-03-25T09:15:58;6.50;99.90
28654;DHT22;24320;56.980;24.336;2024-03-25T09:18:24;6.40;99.90
28654;DHT22;24320;56.980;24.336;2024-03-25T09:20:50;6.30;99.90
28654;DHT22;24320;56.980;24.336;2024-03-25T09:23:16;6.20;99.90
28654;DHT22;24320;56.980;24.336;2024-03-25T09:25:50;6.10;99.90
28654;DHT22;24320;56.980;24.336;2024-03-25T09:28:17;6.00;99.90
28654;DHT22;24320;56.980;24.336;2024-03-25T09:30:43;6.10;99.90
28654;DHT22;24320;56.980;24.336;2024-03-25T09:33:09;6.10;99.90
28654;DHT22;24320;56.980;24.336;2024-03-25T09:35:35;6.20;99.90
28654;DHT22;24320;56.980;24.336;2024-03-25T09:38:02;6.30;99.90
28654;DHT22;24320;56.980;24.336;2024-03-25T09:40:28;6.30;99.90
28654;DHT22;24320;56.980;24.336;2024-03-25T09:42:58;6.40;99.90
28654;DHT22;24320;56.980;24.336;2024-03-25T09:45:26;6.30;99.90
28654;DHT22;24320;56.980;24.336;2024-03-25T09:47:53;6.30;99.90
28654;DHT22;24320;56.980;24.336;2024-03-25T09:50:20;6.40;99.90
28654;DHT22;24320;56.980;24.336;2024-03-25T09:52:46;6.50;99.90
28654;DHT22;24320;56.980;24.336;2024-03-25T09:55:12;6.70;99.90
28654;DHT22;24320;56.980;24.336;2024-03-25T09:57:38;6.90;99.90
28654;DHT22;24320;56.980;24.336;2024-03-25T10:00:04;7.10;99.90
28654;DHT22;24320;56.980;24.336;2024-03-25T10:02:30;7.20;99.90
28654;DHT22;24320;56.980;24.336;2024-03-25T10:04:57;7.30;99.90
28654;DHT22;24320;56.980;24.336;2024-03-25T10:07:23;7.30;99.90
28654;DHT22;24320;56.980;24.336;2024-03-25T10:09:49;7.30;99.90
28654;DHT22;24320;56.980;24.336;2024-03-25T10:12:15;7.40;99.90
28654;DHT22;24320;56.980;24.336;2024-03-25T10:14:41;7.40;99.90
28654;DHT22;24320;56.980;24.336;2024-03-25T10:17:07;7.30;99.90
28654;DHT22;24320;56.980;24.336;2024-03-25T10:19:33;7.30;99.90
28654;DHT22;24320;56.980;24.336;2024-03-25T10:22:06;7.40;99.90
28654;DHT22;24320;56.980;24.336;2024-03-25T10:27:04;7.10;99.90
28654;DHT22;24320;56.980;24.336;2024-03-25T10:29:30;7.00;99.90
28654;DHT22;24320;56.980;24.336;2024-03-25T10:31:59;6.80;99.90
28654;DHT22;24320;56.980;24.336;2024-03-25T10:34:25;6.80;99.90
28654;DHT22;24320;56.980;24.336;2024-03-25T10:36:52;6.70;99.90
28654;DHT22;24320;56.980;24.336;2024-03-25T10:39:21;6.70;99.90
28654;DHT22;24320;56.980;24.336;2024-03-25T10:41:49;6.80;99.90
28654;DHT22;24320;56.980;24.336;2024-03-25T10:44:16;6.80;99.90
28654;DHT22;24320;56.980;24.336;2024-03-25T10:46:43;7.10;99.90
28654;DHT22;24320;56.980;24.336;2024-03-25T10:49:32;7.40;99.90
28654;DHT22;24320;56.980;24.336;2024-03-25T10:51:56;7.90;99.90
28654;DHT22;24320;56.980;24.336;2024-03-25T10:54:23;8.10;99.90
28654;DHT22;24320;56.980;24.336;2024-03-25T10:56:49;8.40;99.90
28654;DHT22;24320;56.980;24.336;2024-03-25T10:59:17;8.50;99.90
28654;DHT22;24320;56.980;24.336;2024-03-25T11:01:44;8.80;99.90
28654;DHT22;24320;56.980;24.336;2024-03-25T11:04:09;9.00;99.90
28654;DHT22;24320;56.980;24.336;2024-03-25T11:06:35;9.10;99.90
28654;DHT22;24320;56.980;24.336;2024-03-25T11:09:01;9.30;99.90
28654;DHT22;24320;56.980;24.336;2024-03-25T11:11:31;9.60;99.90
28654;DHT22;24320;56.980;24.336;2024-03-25T11:13:57;9.80;99.90
28654;DHT22;24320;56.980;24.336;2024-03-25T11:16:26;9.90;99.90
28654;DHT22;24320;56.980;24.336;2024-03-25T11:18:54;10.10;99.90
28654;DHT22;24320;56.980;24.336;2024-03-25T11:21:26;10.30;99.90
28654;DHT22;24320;56.980;24.336;2024-03-25T11:23:51;10.30;99.90
28654;DHT22;24320;56.980;24.336;2024-03-25T11:26:18;10.10;99.90
28654;DHT22;24320;56.980;24.336;2024-03-25T11:28:45;10.00;99.90
28654;DHT22;24320;56.980;24.336;2024-03-25T11:31:11;9.80;99.90
28654;DHT22;24320;56.980;24.336;2024-03-25T11:33:40;9.90;99.90
28654;DHT22;24320;56.980;24.336;2024-03-25T11:36:07;10.00;99.90
28654;DHT22;24320;56.980;24.336;2024-03-25T11:38:33;10.00;99.90
28654;DHT22;24320;56.980;24.336;2024-03-25T11:40:59;10.00;99.90
28654;DHT22;24320;56.980;24.336;2024-03-25T11:43:25;10.10;99.90
28654;DHT22;24320;56.980;24.336;2024-03-25T11:45:51;10.00;99.90
28654;DHT22;24320;56.980;24.336;2024-03-25T11:48:19;9.50;99.90
28654;DHT22;24320;56.980;24.336;2024-03-25T11:50:45;9.20;99.90
28654;DHT22;24320;56.980;24.336;2024-03-25T11:53:12;9.10;99.90
28654;DHT22;24320;56.980;24.336;2024-03-25T11:55:38;9.10;99.90
28654;DHT22;24320;56.980;24.336;2024-03-25T11:58:04;8.90;99.90
28654;DHT22;24320;56.980;24.336;2024-03-25T12:00:30;8.70;99.90
28654;DHT22;24320;56.980;24.336;2024-03-25T12:02:56;8.60;99.90
28654;DHT22;24320;56.980;24.336;2024-03-25T12:05:23;8.50;99.90
28654;DHT22;24320;56.980;24.336;2024-03-25T12:07:48;8.20;99.90
28654;DHT22;24320;56.980;24.336;2024-03-25T12:10:16;8.10;99.90
28654;DHT22;24320;56.980;24.336;2024-03-25T12:13:00;7.90;99.90
28654;DHT22;24320;56.980;24.336;2024-03-25T12:15:25;7.90;99.90
28654;DHT22;24320;56.980;24.336;2024-03-25T12:17:52;7.90;99.90
28654;DHT22;24320;56.980;24.336;2024-03-25T12:20:19;7.80;99.90
28654;DHT22;24320;56.980;24.336;2024-03-25T12:22:48;7.80;99.90
28654;DHT22;24320;56.980;24.336;2024-03-25T12:25:14;7.80;99.90
28654;DHT22;24320;56.980;24.336;2024-03-25T12:27:40;7.90;99.90
28654;DHT22;24320;56.980;24.336;2024-03-25T12:30:09;8.10;99.90
28654;DHT22;24320;56.980;24.336;2024-03-25T12:32:42;8.30;99.90
28654;DHT22;24320;56.980;24.336;2024-03-25T12:35:09;8.40;99.90
28654;DHT22;24320;56.980;24.336;2024-03-25T12:37:37;8.50;99.90
28654;DHT22;24320;56.980;24.336;2024-03-25T12:40:03;8.60;99.90
28654;DHT22;24320;56.980;24.336;2024-03-25T12:42:32;8.60;99.90
28654;DHT22;24320;56.980;24.336;2024-03-25T12:44:57;8.80;99.90
28654;DHT22;24320;56.980;24.336;2024-03-25T12:47:23;8.70;99.90
28654;DHT22;24320;56.980;24.336;2024-03-25T12:49:49;8.70;99.90
28654;DHT22;24320;56.980;24.336;2024-03-25T12:52:15;8.80;99.90
28654;DHT22;24320;56.980;24.336;2024-03-25T12:54:41;8.80;99.90
28654;DHT22;24320;56.980;24.336;2024-03-25T12:57:10;9.00;99.90
28654;DHT22;24320;56.980;24.336;2024-03-25T12:59:36;9.10;99.90
28654;DHT22;24320;56.980;24.336;2024-03-25T13:02:02;9.30;99.90
28654;DHT22;24320;56.980;24.336;2024-03-25T13:04:28;9.30;99.90
28654;DHT22;24320;56.980;24.336;2024-03-25T13:06:55;9.30;99.90
28654;DHT22;24320;56.980;24.336;2024-03-25T13:09:21;9.30;99.90
28654;DHT22;24320;56.980;24.336;2024-03-25T13:11:47;9.30;99.90
28654;DHT22;24320;56.980;24.336;2024-03-25T13:14:13;9.10;99.90
28654;DHT22;24320;56.980;24.336;2024-03-25T13:16:39;9.00;99.90
28654;DHT22;24320;56.980;24.336;2024-03-25T13:19:06;9.10;99.90
28654;DHT22;24320;56.980;24.336;2024-03-25T13:21:31;9.10;99.90
28654;DHT22;24320;56.980;24.336;2024-03-25T13:23:58;9.20;99.90
28654;DHT22;24320;56.980;24.336;2024-03-25T13:26:23;9.30;99.90
28654;DHT22;24320;56.980;24.336;2024-03-25T13:35:47;9.10;99.90
28654;DHT22;24320;56.980;24.336;2024-03-25T13:38:13;9.10;99.90
28654;DHT22;24320;56.980;24.336;2024-03-25T13:40:39;9.00;99.90
28654;DHT22;24320;56.980;24.336;2024-03-25T13:43:05;8.90;99.90
28654;DHT22;24320;56.980;24.336;2024-03-25T13:45:33;8.80;99.90
28654;DHT22;24320;56.980;24.336;2024-03-25T13:47:59;8.80;99.90
28654;DHT22;24320;56.980;24.336;2024-03-25T13:50:25;8.60;99.90
28654;DHT22;24320;56.980;24.336;2024-03-25T13:52:51;8.50;99.90
28654;DHT22;24320;56.980;24.336;2024-03-25T13:55:17;8.40;99.90
28654;DHT22;24320;56.980;24.336;2024-03-25T13:57:43;8.30;99.90
28654;DHT22;24320;56.980;24.336;2024-03-25T14:00:09;8.40;99.90
28654;DHT22;24320;56.980;24.336;2024-03-25T14:02:36;8.60;99.90
28654;DHT22;24320;56.980;24.336;2024-03-25T14:05:04;8.80;99.90
28654;DHT22;24320;56.980;24.336;2024-03-25T14:07:30;8.90;99.90
28654;DHT22;24320;56.980;24.336;2024-03-25T14:09:56;8.90;99.90
28654;DHT22;24320;56.980;24.336;2024-03-25T14:12:23;8.80;99.90
28654;DHT22;24320;56.980;24.336;2024-03-25T14:14:49;8.80;99.90
28654;DHT22;24320;56.980;24.336;2024-03-25T14:17:15;8.70;99.90
28654;DHT22;24320;56.980;24.336;2024-03-25T14:19:41;8.50;99.90
28654;DHT22;24320;56.980;24.336;2024-03-25T14:22:07;8.30;99.90
28654;DHT22;24320;56.980;24.336;2024-03-25T14:24:32;8.10;99.90
28654;DHT22;24320;56.980;24.336;2024-03-25T14:26:58;8.10;99.90
28654;DHT22;24320;56.980;24.336;2024-03-25T14:29:25;8.10;99.90
28654;DHT22;24320;56.980;24.336;2024-03-25T14:31:50;8.00;99.90
28654;DHT22;24320;56.980;24.336;2024-03-25T14:34:16;7.90;99.90
28654;DHT22;24320;56.980;24.336;2024-03-25T14:36:43;7.90;99.90
28654;DHT22;24320;56.980;24.336;2024-03-25T14:39:09;7.80;99.90
28654;DHT22;24320;56.980;24.336;2024-03-25T14:41:39;7.80;99.90
28654;DHT22;24320;56.980;24.336;2024-03-25T14:44:05;7.60;99.90
28654;DHT22;24320;56.980;24.336;2024-03-25T14:46:31;7.60;99.90
28654;DHT22;24320;56.980;24.336;2024-03-25T14:48:56;7.60;99.90
28654;DHT22;24320;56.980;24.336;2024-03-25T14:51:22;7.60;99.90
28654;DHT22;24320;56.980;24.336;2024-03-25T14:53:48;7.60;99.90
28654;DHT22;24320;56.980;24.336;2024-03-25T14:56:14;7.70;99.90
28654;DHT22;24320;56.980;24.336;2024-03-25T14:58:40;7.70;99.90
28654;DHT22;24320;56.980;24.336;2024-03-25T15:01:05;7.80;99.90
28654;DHT22;24320;56.980;24.336;2024-03-25T15:03:31;7.80;99.90
28654;DHT22;24320;56.980;24.336;2024-03-25T15:05:57;7.80;99.90
28654;DHT22;24320;56.980;24.336;2024-03-25T15:08:24;7.80;99.90
28654;DHT22;24320;56.980;24.336;2024-03-25T15:10:50;7.70;99.90
28654;DHT22;24320;56.980;24.336;2024-03-25T15:13:15;7.70;99.90
28654;DHT22;24320;56.980;24.336;2024-03-25T15:15:41;7.70;99.90
28654;DHT22;24320;56.980;24.336;2024-03-25T15:18:10;7.80;99.90
28654;DHT22;24320;56.980;24.336;2024-03-25T15:20:36;7.80;99.90
28654;DHT22;24320;56.980;24.336;2024-03-25T15:23:01;7.80;99.90
28654;DHT22;24320;56.980;24.336;2024-03-25T15:25:28;7.80;99.90
28654;DHT22;24320;56.980;24.336;2024-03-25T15:27:54;7.80;99.90
28654;DHT22;24320;56.980;24.336;2024-03-25T15:30:20;7.60;99.90
28654;DHT22;24320;56.980;24.336;2024-03-25T15:32:46;7.50;99.90
28654;DHT22;24320;56.980;24.336;2024-03-25T15:35:13;7.30;99.90
28654;DHT22;24320;56.980;24.336;2024-03-25T15:37:38;7.00;99.90
28654;DHT22;24320;56.980;24.336;2024-03-25T15:40:04;6.80;99.90
28654;DHT22;24320;56.980;24.336;2024-03-25T15:42:33;6.60;99.90
28654;DHT22;24320;56.980;24.336;2024-03-25T15:44:59;6.40;99.90
28654;DHT22;24320;56.980;24.336;2024-03-25T15:47:25;6.20;99.90
28654;DHT22;24320;56.980;24.336;2024-03-25T15:49:51;6.00;99.90
28654;DHT22;24320;56.980;24.336;2024-03-25T15:52:17;5.80;99.90
28654;DHT22;24320;56.980;24.336;2024-03-25T15:54:43;5.70;99.90
28654;DHT22;24320;56.980;24.336;2024-03-25T15:57:09;5.60;99.90
28654;DHT22;24320;56.980;24.336;2024-03-25T15:59:34;5.50;99.90
28654;DHT22;24320;56.980;24.336;2024-03-25T16:02:00;5.50;99.90